Time;durP1;ratioP1;P1;durP2;ratioP2;P2;SDS_P1;SDS_P2;PMS_P1;PMS_P2;Temp;Humidity;BMP_temperature;BMP_pressure;BME280_temperature;BME280_humidity;BME280_pressure;Samples;Min_cycle;Max_cycle;Signal;HPM_P1;HPM_P2
2022/03/16 00:00:21;;;;;;;;;;;;;;;7.60;95.17;97089.72;4942230;29;19963;-73
2022/03/16 00:02:47;;;;;;;;;;;;;;;7.58;96.66;97091.72;4951658;29;19961;-72
2022/03/16 00:05:13;;;;;;;;;;;;;;;7.53;95.44;97097.47;4952686;29;20311;-71
2022/03/16 00:07:39;;;;;;;;;;;;;;;7.50;96.84;97100.47;4943700;29;19962;-72
2022/03/16 00:10:07;;;;;;;;;;;;;;;7.46;95.93;97110.47;4943027;29;19971;-72
2022/03/16 00:12:34;;;;;;;;;;;;;;;7.42;96.37;97097.97;4943848;29;19996;-72
2022/03/16 00:14:59;;;;;;;;;;;;;;;7.38;97.02;97104.53;4946767;29;19957;-72
2022/03/16 00:17:25;;;;;;;;;;;;;;;7.30;96.57;97108.84;4951385;29;20014;-72
2022/03/16 00:19:51;;;;;;;;;;;;;;;7.29;97.05;97106.44;4941088;29;19956;-71
2022/03/16 00:22:17;;;;;;;;;;;;;;;7.27;96.73;97105.78;4941451;29;19983;-73
2022/03/16 00:24:43;;;;;;;;;;;;;;;7.23;95.43;97113.16;4931497;29;19961;-72
2022/03/16 00:27:09;;;;;;;;;;;;;;;7.19;97.25;97108.50;4946508;29;20051;-72
2022/03/16 00:29:35;;;;;;;;;;;;;;;7.18;95.92;97109.47;4942501;29;19980;-72
2022/03/16 00:32:01;;;;;;;;;;;;;;;7.15;96.68;97113.25;4944764;29;20311;-72
2022/03/16 00:34:27;;;;;;;;;;;;;;;7.15;95.80;97115.06;4948335;29;20073;-72
2022/03/16 00:36:53;;;;;;;;;;;;;;;7.14;97.32;97113.41;4945421;29;19946;-72
2022/03/16 00:39:19;;;;;;;;;;;;;;;7.13;96.03;97117.03;4946528;29;19968;-72
2022/03/16 00:41:44;;;;;;;;;;;;;;;7.12;94.93;97116.22;4949549;29;20026;-72
2022/03/16 00:44:10;;;;;;;;;;;;;;;7.12;97.13;97113.63;4942810;29;20046;-72
2022/03/16 00:46:36;;;;;;;;;;;;;;;7.09;96.78;97117.38;4944014;29;19970;-71
2022/03/16 00:49:03;;;;;;;;;;;;;;;7.07;95.19;97121.97;4946036;29;19962;-72
2022/03/16 00:51:29;;;;;;;;;;;;;;;7.04;96.88;97113.72;4945170;29;19962;-71
2022/03/16 00:53:55;;;;;;;;;;;;;;;7.00;96.59;97117.66;4950201;29;20099;-71
2022/03/16 00:56:21;;;;;;;;;;;;;;;6.97;97.14;97111.00;4947163;29;19963;-71
2022/03/16 00:58:47;;;;;;;;;;;;;;;6.92;96.62;97115.94;4912900;29;19996;-72
2022/03/16 01:01:13;;;;;;;;;;;;;;;6.87;96.01;97106.03;4925438;29;19961;-71
2022/03/16 01:03:41;;;;;;;;;;;;;;;6.85;96.09;97117.63;4946135;29;19964;-72
2022/03/16 01:06:17;;;;;;;;;;;;;;;6.81;94.01;97111.16;4947244;29;19969;-72
2022/03/16 01:08:43;;;;;;;;;;;;;;;6.75;94.96;97112.66;4951100;29;19985;-71
2022/03/16 01:11:10;;;;;;;;;;;;;;;6.72;95.88;97107.81;4949655;29;19974;-71
2022/03/16 01:13:37;;;;;;;;;;;;;;;6.69;96.31;97103.75;4954038;29;19969;-71
2022/03/16 01:16:03;;;;;;;;;;;;;;;6.71;96.26;97107.00;4954991;29;20415;-71
2022/03/16 01:18:29;;;;;;;;;;;;;;;6.74;96.00;97115.44;4948313;29;19975;-71
2022/03/16 01:20:55;;;;;;;;;;;;;;;6.77;96.80;97115.91;4945820;29;20038;-71
2022/03/16 01:23:21;;;;;;;;;;;;;;;6.80;97.47;97115.53;4946882;29;19958;-72
2022/03/16 01:25:47;;;;;;;;;;;;;;;6.83;96.08;97120.41;4954477;29;20442;-73
2022/03/16 01:28:13;;;;;;;;;;;;;;;6.88;95.55;97128.50;4949366;29;19992;-71
2022/03/16 01:30:38;;;;;;;;;;;;;;;6.92;95.06;97115.94;4948475;29;20429;-71
2022/03/16 01:33:04;;;;;;;;;;;;;;;6.95;94.28;97123.41;4948709;29;20000;-71
2022/03/16 01:35:30;;;;;;;;;;;;;;;7.00;94.03;97120.25;4948174;29;19956;-71
2022/03/16 01:37:56;;;;;;;;;;;;;;;7.03;93.41;97112.88;4931545;29;19951;-71
2022/03/16 01:40:22;;;;;;;;;;;;;;;7.05;93.80;97116.13;4949877;29;19969;-72
2022/03/16 01:42:48;;;;;;;;;;;;;;;7.08;92.00;97105.34;4949964;29;20049;-71
2022/03/16 01:45:14;;;;;;;;;;;;;;;7.05;93.34;97113.50;4951620;29;19961;-72
2022/03/16 01:47:39;;;;;;;;;;;;;;;7.09;93.09;97111.34;4946938;29;19960;-71
2022/03/16 01:50:06;;;;;;;;;;;;;;;7.12;93.61;97111.00;4950216;29;19954;-71
2022/03/16 01:52:32;;;;;;;;;;;;;;;7.14;93.26;97106.44;4947908;29;19973;-71
2022/03/16 01:54:58;;;;;;;;;;;;;;;7.17;93.36;97108.66;4953875;29;19959;-72
2022/03/16 01:57:24;;;;;;;;;;;;;;;7.17;92.84;97116.50;4945971;29;19971;-72
2022/03/16 01:59:50;;;;;;;;;;;;;;;7.19;92.50;97108.50;4948781;29;19957;-72
2022/03/16 02:02:16;;;;;;;;;;;;;;;7.20;92.40;97112.72;4954744;29;20005;-72
2022/03/16 02:04:44;;;;;;;;;;;;;;;7.20;92.41;97115.31;4946759;29;19954;-72
2022/03/16 02:07:10;;;;;;;;;;;;;;;7.21;92.07;97112.53;4947393;29;19964;-72
2022/03/16 02:09:36;;;;;;;;;;;;;;;7.23;92.21;97114.97;4948637;29;19958;-73
2022/03/16 02:12:02;;;;;;;;;;;;;;;7.24;92.08;97101.72;4948784;29;19961;-72
2022/03/16 02:14:29;;;;;;;;;;;;;;;7.26;92.13;97102.34;4948950;29;19963;-72
2022/03/16 02:16:56;;;;;;;;;;;;;;;7.25;92.07;97113.78;4948198;28;19955;-72
2022/03/16 02:19:23;;;;;;;;;;;;;;;7.26;91.71;97106.78;4943363;29;19959;-72
2022/03/16 02:21:53;;;;;;;;;;;;;;;7.27;92.26;97109.22;4951598;29;19952;-72
2022/03/16 02:24:20;;;;;;;;;;;;;;;7.25;92.68;97110.38;4950751;29;19965;-72
2022/03/16 02:26:45;;;;;;;;;;;;;;;7.23;92.13;97107.16;4944984;29;19982;-72
2022/03/16 02:29:11;;;;;;;;;;;;;;;7.25;92.08;97110.38;4947118;29;20001;-72
2022/03/16 02:31:37;;;;;;;;;;;;;;;7.29;91.60;97111.66;4947604;29;19960;-71
2022/03/16 02:34:03;;;;;;;;;;;;;;;7.31;92.00;97118.28;4936647;29;19976;-71
2022/03/16 02:36:29;;;;;;;;;;;;;;;7.33;91.62;97112.91;4945811;29;20015;-72
2022/03/16 02:38:55;;;;;;;;;;;;;;;7.36;91.62;97109.13;4949166;29;19953;-71
2022/03/16 02:41:20;;;;;;;;;;;;;;;7.38;91.38;97114.97;4943491;29;19969;-71
2022/03/16 02:43:46;;;;;;;;;;;;;;;7.39;91.10;97114.78;4930172;29;19952;-72
2022/03/16 02:46:12;;;;;;;;;;;;;;;7.41;91.17;97117.19;4954036;29;19994;-72
2022/03/16 02:48:38;;;;;;;;;;;;;;;7.41;91.06;97119.81;4941776;29;20000;-71
2022/03/16 02:51:04;;;;;;;;;;;;;;;7.42;90.91;97119.63;4951590;29;20407;-71
2022/03/16 02:53:30;;;;;;;;;;;;;;;7.43;90.81;97118.66;4951814;29;20066;-72
2022/03/16 02:55:56;;;;;;;;;;;;;;;7.43;90.88;97123.06;4948013;29;20037;-72
2022/03/16 02:58:22;;;;;;;;;;;;;;;7.42;91.24;97126.66;4928126;29;19959;-71
2022/03/16 03:00:48;;;;;;;;;;;;;;;7.40;92.09;97120.81;4944668;29;19963;-72
2022/03/16 03:03:14;;;;;;;;;;;;;;;7.40;91.88;97115.59;4946697;29;19963;-71
2022/03/16 03:05:40;;;;;;;;;;;;;;;7.39;91.71;97114.78;4949500;29;19963;-71
2022/03/16 03:08:06;;;;;;;;;;;;;;;7.40;91.86;97113.00;4952822;29;20443;-72
2022/03/16 03:10:32;;;;;;;;;;;;;;;7.40;92.07;97118.19;4942435;29;20012;-71
2022/03/16 03:12:58;;;;;;;;;;;;;;;7.42;91.70;97118.84;4945128;29;19976;-71
2022/03/16 03:15:23;;;;;;;;;;;;;;;7.42;92.00;97122.25;4953849;29;19962;-71
2022/03/16 03:17:49;;;;;;;;;;;;;;;7.43;91.78;97130.88;4949274;29;19974;-72
2022/03/16 03:20:15;;;;;;;;;;;;;;;7.41;91.68;97123.25;4947834;29;19952;-71
2022/03/16 03:22:41;;;;;;;;;;;;;;;7.44;91.56;97128.09;4945518;29;20065;-71
2022/03/16 03:25:11;;;;;;;;;;;;;;;7.45;91.20;97127.09;4946432;29;19982;-71
2022/03/16 03:27:37;;;;;;;;;;;;;;;7.46;91.56;97126.13;4947204;29;19957;-71
2022/03/16 03:30:03;;;;;;;;;;;;;;;7.49;91.66;97130.16;4942530;28;19980;-72
2022/03/16 03:32:29;;;;;;;;;;;;;;;7.48;91.48;97134.56;4952232;29;19958;-71
2022/03/16 03:34:55;;;;;;;;;;;;;;;7.51;91.54;97133.41;4948877;29;20338;-72
2022/03/16 03:37:22;;;;;;;;;;;;;;;7.50;91.22;97143.03;4948680;29;20366;-71
2022/03/16 03:39:48;;;;;;;;;;;;;;;7.51;91.42;97141.22;4943126;29;19949;-71
2022/03/16 03:42:14;;;;;;;;;;;;;;;7.50;91.45;97140.41;4930324;29;20405;-71
2022/03/16 03:44:40;;;;;;;;;;;;;;;7.51;91.35;97142.03;4947474;29;19967;-71
2022/03/16 03:47:08;;;;;;;;;;;;;;;7.51;91.50;97133.41;4947567;29;20430;-71
2022/03/16 03:49:35;;;;;;;;;;;;;;;7.51;91.24;97136.81;4945453;29;19970;-72
2022/03/16 03:52:01;;;;;;;;;;;;;;;7.52;91.53;97129.81;4945390;29;19958;-71
2022/03/16 03:54:27;;;;;;;;;;;;;;;7.52;91.67;97135.03;4949051;29;20315;-71
2022/03/16 03:56:53;;;;;;;;;;;;;;;7.51;91.59;97125.56;4949104;29;19963;-72
2022/03/16 03:59:19;;;;;;;;;;;;;;;7.50;91.82;97132.59;4949208;29;20006;-71
2022/03/16 04:01:46;;;;;;;;;;;;;;;7.47;91.64;97134.75;4942470;29;19962;-71
2022/03/16 04:04:12;;;;;;;;;;;;;;;7.45;91.52;97128.91;4944997;29;19969;-72
2022/03/16 04:06:38;;;;;;;;;;;;;;;7.42;91.79;97130.06;4947709;29;19966;-71
2022/03/16 04:09:04;;;;;;;;;;;;;;;7.42;91.17;97126.66;4928775;29;19951;-71
2022/03/16 04:11:30;;;;;;;;;;;;;;;7.39;91.62;97124.41;4951094;29;19980;-72
2022/03/16 04:13:56;;;;;;;;;;;;;;;7.38;91.73;97126.22;4946801;29;20355;-71
2022/03/16 04:16:22;;;;;;;;;;;;;;;7.37;91.51;97129.00;4945067;29;19982;-71
2022/03/16 04:18:48;;;;;;;;;;;;;;;7.39;91.82;97132.22;4947050;29;19954;-72
2022/03/16 04:21:14;;;;;;;;;;;;;;;7.37;91.82;97123.78;4946678;29;19958;-71
2022/03/16 04:23:40;;;;;;;;;;;;;;;7.35;91.73;97123.13;4948108;29;19965;-71
2022/03/16 04:26:06;;;;;;;;;;;;;;;7.35;91.99;97123.97;4943162;29;19977;-71
2022/03/16 04:28:32;;;;;;;;;;;;;;;7.34;91.84;97122.34;4947022;29;19987;-71
2022/03/16 04:30:59;;;;;;;;;;;;;;;7.36;91.65;97122.16;4945839;29;20423;-71
2022/03/16 04:33:26;;;;;;;;;;;;;;;7.34;91.86;97127.56;4946576;29;20425;-71
2022/03/16 04:35:52;;;;;;;;;;;;;;;7.37;92.00;97132.44;4949998;29;19968;-71
2022/03/16 04:38:19;;;;;;;;;;;;;;;7.35;91.54;97126.59;4946518;29;19957;-72
2022/03/16 04:40:45;;;;;;;;;;;;;;;7.36;91.66;97124.78;4941303;29;19958;-71
2022/03/16 04:43:11;;;;;;;;;;;;;;;7.34;91.78;97131.97;4944823;29;19961;-71
2022/03/16 04:45:39;;;;;;;;;;;;;;;7.32;92.11;97129.53;4945407;29;19954;-71
2022/03/16 04:48:07;;;;;;;;;;;;;;;7.31;92.10;97128.72;4945508;29;19963;-71
2022/03/16 04:50:36;;;;;;;;;;;;;;;7.31;91.92;97135.75;4951142;29;19965;-71
2022/03/16 04:53:02;;;;;;;;;;;;;;;7.33;91.43;97139.00;4942842;29;19965;-71
2022/03/16 04:55:28;;;;;;;;;;;;;;;7.31;91.56;97128.72;4943441;29;19969;-73
2022/03/16 04:57:54;;;;;;;;;;;;;;;7.31;91.36;97133.94;4946161;29;19960;-73
2022/03/16 05:00:21;;;;;;;;;;;;;;;7.33;91.30;97136.38;4946931;29;20067;-72
2022/03/16 05:02:46;;;;;;;;;;;;;;;7.34;91.67;97139.78;4948921;29;19957;-72
2022/03/16 05:05:12;;;;;;;;;;;;;;;7.34;91.48;97130.16;4946525;29;20008;-71
2022/03/16 05:07:39;;;;;;;;;;;;;;;7.35;91.99;97131.81;4946814;29;19966;-71
2022/03/16 05:10:06;;;;;;;;;;;;;;;7.34;91.60;97117.13;4943592;29;19959;-71
2022/03/16 05:12:38;;;;;;;;;;;;;;;7.34;91.68;97130.16;4946393;29;19960;-72
2022/03/16 05:15:08;;;;;;;;;;;;;;;7.34;91.47;97132.78;4942370;29;19960;-72
2022/03/16 05:17:35;;;;;;;;;;;;;;;7.35;91.24;97134.41;4944389;29;19952;-72
2022/03/16 05:20:01;;;;;;;;;;;;;;;7.37;91.22;97142.03;4945356;29;20312;-71
2022/03/16 05:22:27;;;;;;;;;;;;;;;7.38;91.25;97143.66;4951147;29;20053;-71
2022/03/16 05:24:53;;;;;;;;;;;;;;;7.37;91.10;97148.09;4943975;29;19951;-71
2022/03/16 05:27:20;;;;;;;;;;;;;;;7.39;90.96;97156.53;4939521;29;19963;-71
2022/03/16 05:29:47;;;;;;;;;;;;;;;7.40;91.09;97152.94;4950561;29;20324;-71
2022/03/16 05:32:14;;;;;;;;;;;;;;;7.39;91.89;97155.72;4951254;29;20409;-71
2022/03/16 05:34:39;;;;;;;;;;;;;;;7.39;91.45;97158.31;4946247;29;19973;-71
2022/03/16 05:37:06;;;;;;;;;;;;;;;7.39;91.64;97153.94;4940091;29;19997;-71
2022/03/16 05:39:32;;;;;;;;;;;;;;;7.38;91.37;97154.91;4946586;29;20408;-71
2022/03/16 05:42:00;;;;;;;;;;;;;;;7.39;91.83;97153.94;4947334;29;20324;-71
2022/03/16 05:44:26;;;;;;;;;;;;;;;7.37;91.32;97153.31;4946489;29;20450;-72
2022/03/16 05:46:54;;;;;;;;;;;;;;;7.38;91.15;97149.69;4948706;29;19955;-71
2022/03/16 05:49:22;;;;;;;;;;;;;;;7.38;90.77;97154.91;4943716;29;19964;-71
2022/03/16 05:51:48;;;;;;;;;;;;;;;7.39;91.01;97155.72;4943592;28;20327;-71
2022/03/16 05:54:14;;;;;;;;;;;;;;;7.40;91.34;97159.97;4948721;29;20419;-71
2022/03/16 05:56:39;;;;;;;;;;;;;;;7.40;91.40;97167.78;4952441;29;19990;-72
2022/03/16 05:59:05;;;;;;;;;;;;;;;7.39;91.83;97166.97;4948866;29;19941;-71
2022/03/16 06:01:31;;;;;;;;;;;;;;;7.40;91.28;97165.97;4951067;29;20012;-72
2022/03/16 06:03:57;;;;;;;;;;;;;;;7.41;91.25;97175.44;4949513;29;19954;-72
2022/03/16 06:06:23;;;;;;;;;;;;;;;7.43;91.22;97162.19;4955109;29;20012;-71
2022/03/16 06:08:49;;;;;;;;;;;;;;;7.45;91.12;97168.03;4946017;29;20040;-71
2022/03/16 06:11:14;;;;;;;;;;;;;;;7.44;91.18;97175.06;4949860;29;19960;-71
2022/03/16 06:13:40;;;;;;;;;;;;;;;7.43;91.48;97177.84;4949801;29;19972;-71
2022/03/16 06:16:06;;;;;;;;;;;;;;;7.42;92.65;97178.84;4948826;29;19962;-71
2022/03/16 06:18:32;;;;;;;;;;;;;;;7.37;92.17;97171.56;4931343;29;20020;-71
2022/03/16 06:20:58;;;;;;;;;;;;;;;7.38;92.20;97182.81;4952445;29;20039;-71
2022/03/16 06:23:24;;;;;;;;;;;;;;;7.33;94.20;97188.56;4953623;29;19954;-72
2022/03/16 06:25:50;;;;;;;;;;;;;;;7.24;94.14;97180.00;4930955;29;20018;-72
2022/03/16 06:28:15;;;;;;;;;;;;;;;7.23;94.62;97180.19;4947073;29;20027;-71
2022/03/16 06:30:41;;;;;;;;;;;;;;;7.22;95.01;97181.97;4949160;29;20070;-72
2022/03/16 06:33:07;;;;;;;;;;;;;;;7.24;94.66;97187.00;4948608;29;20398;-72
2022/03/16 06:35:33;;;;;;;;;;;;;;;7.28;94.21;97194.31;4929457;29;20010;-71
2022/03/16 06:37:59;;;;;;;;;;;;;;;7.33;94.50;97193.78;4950834;29;19958;-71
2022/03/16 06:40:25;;;;;;;;;;;;;;;7.30;94.84;97200.16;4946063;29;19957;-71
2022/03/16 06:42:55;;;;;;;;;;;;;;;7.25;95.56;97197.28;4947312;29;20329;-71
2022/03/16 06:45:21;;;;;;;;;;;;;;;7.26;94.87;97203.31;4949975;29;19957;-71
2022/03/16 06:47:48;;;;;;;;;;;;;;;7.32;94.53;97199.97;4951302;29;19946;-71
2022/03/16 06:50:14;;;;;;;;;;;;;;;7.35;94.46;97190.97;4951775;29;19958;-72
2022/03/16 06:52:40;;;;;;;;;;;;;;;7.34;95.00;97203.22;4954221;29;20326;-71
2022/03/16 06:55:09;;;;;;;;;;;;;;;7.37;97.36;97215.09;4944607;29;19973;-71
2022/03/16 06:57:35;;;;;;;;;;;;;;;7.71;98.06;97217.19;4947364;29;20357;-71
2022/03/16 07:00:02;;;;;;;;;;;;;;;7.84;94.25;97222.59;4945520;29;19960;-71
2022/03/16 07:02:28;;;;;;;;;;;;;;;7.85;92.89;97220.78;4952193;29;19965;-72
2022/03/16 07:04:54;;;;;;;;;;;;;;;7.78;93.94;97222.50;4945688;29;20424;-71
2022/03/16 07:07:20;;;;;;;;;;;;;;;7.67;93.66;97215.94;4945630;29;20007;-71
2022/03/16 07:09:46;;;;;;;;;;;;;;;7.64;93.27;97216.28;4952895;29;20005;-71
2022/03/16 07:12:12;;;;;;;;;;;;;;;7.64;93.15;97230.16;4943779;29;20403;-71
2022/03/16 07:14:38;;;;;;;;;;;;;;;7.69;93.38;97232.25;4947810;29;20383;-71
2022/03/16 07:17:04;;;;;;;;;;;;;;;7.70;93.06;97223.41;4951018;29;19966;-71
2022/03/16 07:19:30;;;;;;;;;;;;;;;7.79;95.03;97230.16;4947755;29;20333;-72
2022/03/16 07:22:00;;;;;;;;;;;;;;;7.92;93.45;97237.38;4947085;29;19961;-71
2022/03/16 07:24:26;;;;;;;;;;;;;;;7.89;92.65;97235.09;4941302;29;20317;-71
2022/03/16 07:26:53;;;;;;;;;;;;;;;7.87;92.37;97242.31;4950202;29;19984;-71
2022/03/16 07:29:19;;;;;;;;;;;;;;;7.86;92.09;97232.88;4948697;29;20437;-71
2022/03/16 07:31:45;;;;;;;;;;;;;;;7.87;92.31;97235.31;4942502;29;19969;-72
2022/03/16 07:34:12;;;;;;;;;;;;;;;7.87;92.55;97229.25;4948517;29;19972;-71
2022/03/16 07:36:38;;;;;;;;;;;;;;;7.88;92.64;97236.91;4929761;29;19959;-72
2022/03/16 07:39:03;;;;;;;;;;;;;;;7.90;92.47;97236.75;4950710;29;20317;-71
2022/03/16 07:41:30;;;;;;;;;;;;;;;7.92;92.19;97235.56;4945222;29;19962;-72
2022/03/16 07:43:56;;;;;;;;;;;;;;;7.93;92.04;97239.78;4943217;29;19954;-72
2022/03/16 07:46:21;;;;;;;;;;;;;;;7.96;92.39;97246.47;4947603;29;20076;-71
2022/03/16 07:48:47;;;;;;;;;;;;;;;7.98;92.20;97236.66;4933381;29;19961;-71
2022/03/16 07:51:13;;;;;;;;;;;;;;;7.98;92.14;97241.88;4949132;29;19957;-72
2022/03/16 07:53:39;;;;;;;;;;;;;;;7.97;92.06;97232.41;4944663;29;19972;-72
2022/03/16 07:56:05;;;;;;;;;;;;;;;7.97;92.01;97231.59;4946830;29;19951;-71
2022/03/16 07:58:31;;;;;;;;;;;;;;;7.98;92.03;97238.41;4947700;29;19962;-72
2022/03/16 08:00:56;;;;;;;;;;;;;;;7.98;92.01;97226.19;4948779;29;19947;-72
2022/03/16 08:03:22;;;;;;;;;;;;;;;8.01;92.28;97236.25;4948720;29;19965;-71
2022/03/16 08:05:48;;;;;;;;;;;;;;;8.03;92.38;97234.28;4946842;29;19962;-72
2022/03/16 08:08:14;;;;;;;;;;;;;;;8.18;94.59;97236.06;4946302;29;19997;-72
2022/03/16 08:10:40;;;;;;;;;;;;;;;8.36;91.93;97222.59;4948308;29;19954;-72
2022/03/16 08:13:06;;;;;;;;;;;;;;;8.45;90.90;97224.16;4942525;29;19998;-71
2022/03/16 08:15:32;;;;;;;;;;;;;;;8.55;90.52;97219.44;4943297;29;19979;-71
2022/03/16 08:17:58;;;;;;;;;;;;;;;8.63;89.88;97219.31;4952540;29;19957;-71
2022/03/16 08:20:24;;;;;;;;;;;;;;;8.64;89.88;97217.50;4947078;29;20460;-72
2022/03/16 08:22:56;;;;;;;;;;;;;;;8.62;89.23;97227.34;4945493;29;20010;-72
2022/03/16 08:25:22;;;;;;;;;;;;;;;8.64;89.52;97226.16;4945282;29;20479;-71
2022/03/16 08:27:48;;;;;;;;;;;;;;;8.64;88.85;97223.53;4946615;29;20410;-71
2022/03/16 08:30:15;;;;;;;;;;;;;;;8.67;88.93;97225.78;4945354;29;20047;-71
2022/03/16 08:32:42;;;;;;;;;;;;;;;8.62;88.91;97216.88;4947270;29;19952;-71
2022/03/16 08:35:08;;;;;;;;;;;;;;;8.53;89.43;97224.03;4943700;29;19967;-71
2022/03/16 08:37:35;;;;;;;;;;;;;;;8.48;89.72;97218.53;4950251;29;20327;-71
2022/03/16 08:40:01;;;;;;;;;;;;;;;8.49;90.08;97226.19;4945779;29;19960;-72
2022/03/16 08:42:27;;;;;;;;;;;;;;;8.50;89.84;97221.78;4945929;29;20376;-71
2022/03/16 08:44:53;;;;;;;;;;;;;;;8.51;91.01;97224.22;4944661;29;19999;-71
2022/03/16 08:47:21;;;;;;;;;;;;;;;8.57;90.36;97225.28;4945553;29;19954;-71
2022/03/16 08:49:48;;;;;;;;;;;;;;;8.60;90.74;97222.28;4947085;29;19965;-71
2022/03/16 08:52:14;;;;;;;;;;;;;;;8.66;90.32;97212.91;4948106;29;19953;-71
2022/03/16 08:54:40;;;;;;;;;;;;;;;8.71;89.86;97216.56;4950430;29;20322;-72
2022/03/16 08:57:08;;;;;;;;;;;;;;;8.76;90.03;97210.78;4946055;29;20405;-72
2022/03/16 08:59:34;;;;;;;;;;;;;;;8.80;90.49;97211.19;4944829;29;20366;-71
2022/03/16 09:01:59;;;;;;;;;;;;;;;8.81;90.21;97197.94;4939877;29;20032;-72
2022/03/16 09:04:25;;;;;;;;;;;;;;;8.82;89.95;97209.19;4951898;29;20017;-72
2022/03/16 09:06:51;;;;;;;;;;;;;;;8.83;89.98;97210.84;4939591;29;19967;-71
2022/03/16 09:09:17;;;;;;;;;;;;;;;8.88;90.16;97209.28;4945123;29;20055;-71
2022/03/16 09:11:43;;;;;;;;;;;;;;;8.94;89.62;97199.84;4949333;29;19952;-71
2022/03/16 09:14:09;;;;;;;;;;;;;;;9.02;89.31;97197.09;4946725;29;19969;-72
2022/03/16 09:16:34;;;;;;;;;;;;;;;9.07;89.75;97199.97;4947541;29;20037;-71
2022/03/16 09:19:00;;;;;;;;;;;;;;;9.16;88.98;97197.22;4945715;29;19960;-71
2022/03/16 09:21:26;;;;;;;;;;;;;;;9.26;88.44;97200.28;4944501;29;19961;-71
2022/03/16 09:23:53;;;;;;;;;;;;;;;9.30;88.45;97206.78;4949219;29;19966;-71
2022/03/16 09:26:22;;;;;;;;;;;;;;;9.35;88.28;97213.06;4949584;28;19983;-71
2022/03/16 09:28:48;;;;;;;;;;;;;;;9.40;88.31;97215.09;4948797;29;19958;-71
2022/03/16 09:31:14;;;;;;;;;;;;;;;9.43;87.76;97214.72;4944752;29;19958;-71
2022/03/16 09:33:40;;;;;;;;;;;;;;;9.41;87.67;97208.88;4953105;29;20457;-71
2022/03/16 09:36:08;;;;;;;;;;;;;;;9.38;88.46;97213.69;4950961;29;19957;-72
2022/03/16 09:38:37;;;;;;;;;;;;;;;9.32;88.65;97208.22;4950550;29;20307;-71
2022/03/16 09:41:04;;;;;;;;;;;;;;;9.34;87.89;97210.63;4946017;29;20431;-72
2022/03/16 09:43:33;;;;;;;;;;;;;;;9.38;87.90;97208.44;4948007;29;19953;-71
2022/03/16 09:45:59;;;;;;;;;;;;;;;9.43;87.96;97203.44;4953277;29;19955;-71
2022/03/16 09:48:25;;;;;;;;;;;;;;;9.46;88.09;97208.28;4947830;29;19959;-71
2022/03/16 09:50:53;;;;;;;;;;;;;;;9.49;87.59;97208.72;4949570;29;20622;-71
2022/03/16 09:53:20;;;;;;;;;;;;;;;9.52;87.61;97197.06;4952923;29;19962;-71
2022/03/16 09:55:46;;;;;;;;;;;;;;;9.54;87.07;97203.72;4950457;29;19987;-71
2022/03/16 09:58:12;;;;;;;;;;;;;;;9.59;86.86;97200.50;4949727;29;19952;-71
2022/03/16 10:00:38;;;;;;;;;;;;;;;9.62;87.38;97192.28;4947424;29;19954;-71
2022/03/16 10:03:04;;;;;;;;;;;;;;;9.66;87.25;97196.13;4952764;29;19964;-72
2022/03/16 10:05:30;;;;;;;;;;;;;;;9.68;87.93;97190.69;4951276;29;19959;-71
2022/03/16 10:08:02;;;;;;;;;;;;;;;9.71;87.69;97185.88;4944272;29;19963;-71
2022/03/16 10:13:18;;;;;;;;;;;;;;;9.96;87.15;97183.56;4954371;29;19963;-73
2022/03/16 10:15:44;;;;;;;;;;;;;;;10.06;86.04;97174.56;4948982;29;19967;-73
2022/03/16 10:18:10;;;;;;;;;;;;;;;10.05;86.13;97168.47;4946968;29;19956;-72
2022/03/16 10:20:37;;;;;;;;;;;;;;;10.07;85.76;97160.44;4943587;29;19962;-73
2022/03/16 10:23:08;;;;;;;;;;;;;;;10.07;86.25;97163.84;4950324;29;19967;-72
2022/03/16 10:25:38;;;;;;;;;;;;;;;10.11;87.01;97170.31;4953339;29;19985;-73
2022/03/16 10:28:12;;;;;;;;;;;;;;;10.18;87.04;97162.47;4948188;29;19963;-73
2022/03/16 10:30:57;;;;;;;;;;;;;;;10.22;85.95;97160.28;4942684;29;19953;-72
2022/03/16 10:33:23;;;;;;;;;;;;;;;10.25;86.39;97157.28;4945573;29;19956;-72
2022/03/16 10:36:01;;;;;;;;;;;;;;;10.33;86.08;97160.53;4954567;29;19999;-73
2022/03/16 10:38:27;;;;;;;;;;;;;;;10.37;85.26;97160.94;4949388;28;19965;-73
2022/03/16 10:40:55;;;;;;;;;;;;;;;10.41;84.83;97159.53;4946509;29;19960;-72
2022/03/16 10:49:01;;;;;;;;;;;;;;;10.50;85.12;97162.81;4946708;29;19959;-72
2022/03/16 10:51:26;;;;;;;;;;;;;;;10.53;85.44;97170.25;4952132;29;19958;-72
2022/03/16 10:53:53;;;;;;;;;;;;;;;10.60;84.97;97165.03;4949871;29;19958;-73
2022/03/16 10:56:19;;;;;;;;;;;;;;;10.69;84.92;97153.34;4948301;29;19967;-72
2022/03/16 10:58:49;;;;;;;;;;;;;;;10.80;83.59;97154.56;4944623;29;20422;-72
2022/03/16 11:01:15;;;;;;;;;;;;;;;10.81;83.88;97162.19;4948511;29;19950;-73
2022/03/16 11:03:44;;;;;;;;;;;;;;;10.77;82.42;97166.25;4950774;29;20408;-72
2022/03/16 11:06:10;;;;;;;;;;;;;;;10.72;82.74;97163.41;4948805;29;19962;-72
2022/03/16 11:08:37;;;;;;;;;;;;;;;10.72;81.89;97163.41;4946670;29;19966;-72
2022/03/16 11:13:27;;;;;;;;;;;;;;;10.69;81.45;97159.38;4944829;29;19958;-72
2022/03/16 11:13:50;;;;;;;;;;;;;;;10.65;81.89;97168.66;4948434;29;19956;-72
2022/03/16 11:16:20;;;;;;;;;;;;;;;10.58;81.78;97175.69;4947659;29;19978;-72
2022/03/16 11:18:50;;;;;;;;;;;;;;;10.60;82.52;97168.44;4945852;29;20264;-72
2022/03/16 11:21:27;;;;;;;;;;;;;;;10.69;83.79;97161.22;4953859;29;19955;-74
2022/03/16 11:26:48;;;;;;;;;;;;;;;10.96;83.44;97149.72;4946705;29;20053;-73
2022/03/16 11:29:14;;;;;;;;;;;;;;;11.12;82.32;97148.47;4949388;29;19950;-73
2022/03/16 11:31:42;;;;;;;;;;;;;;;11.26;82.00;97143.22;4949021;29;20468;-73
2022/03/16 11:34:10;;;;;;;;;;;;;;;11.37;81.30;97132.88;4947459;29;19960;-73
2022/03/16 11:36:40;;;;;;;;;;;;;;;11.46;80.63;97135.28;4945768;29;19954;-72
2022/03/16 11:39:14;;;;;;;;;;;;;;;11.48;81.23;97147.19;4944444;29;20320;-73
2022/03/16 11:41:47;;;;;;;;;;;;;;;11.52;81.52;97155.47;4944831;29;20411;-72
2022/03/16 11:44:25;;;;;;;;;;;;;;;11.54;80.73;97148.19;4948527;29;19955;-73
2022/03/16 11:47:11;;;;;;;;;;;;;;;11.52;81.10;97151.00;4932524;29;19963;-72
2022/03/16 11:49:41;;;;;;;;;;;;;;;11.54;80.73;97145.56;4939383;28;19951;-72
2022/03/16 11:52:09;;;;;;;;;;;;;;;11.53;81.42;97139.50;4941240;29;20059;-72
2022/03/16 11:54:42;;;;;;;;;;;;;;;11.49;80.99;97119.91;4945177;29;20439;-72
2022/03/16 11:57:09;;;;;;;;;;;;;;;11.51;81.39;97120.53;4938280;29;19958;-73
2022/03/16 11:59:36;;;;;;;;;;;;;;;11.60;80.16;97117.66;4942790;29;19954;-73
2022/03/16 12:02:07;;;;;;;;;;;;;;;11.66;80.02;97116.84;4947130;29;20433;-73
2022/03/16 12:04:38;;;;;;;;;;;;;;;11.74;80.31;97124.50;4951465;29;19951;-73
2022/03/16 12:07:06;;;;;;;;;;;;;;;11.75;77.57;97126.09;4926933;29;19949;-73
2022/03/16 12:09:52;;;;;;;;;;;;;;;11.75;77.88;97124.25;4946200;29;19967;-73
2022/03/16 12:15:09;;;;;;;;;;;;;;;11.83;77.24;97107.47;4949356;29;19964;-73
2022/03/16 12:17:36;;;;;;;;;;;;;;;11.83;76.99;97111.91;4947428;29;20319;-73
2022/03/16 12:20:10;;;;;;;;;;;;;;;11.85;76.75;97102.00;4944728;29;19966;-73
2022/03/16 12:22:50;;;;;;;;;;;;;;;12.04;76.57;97110.84;4946738;29;19955;-73
2022/03/16 12:25:26;;;;;;;;;;;;;;;12.15;75.26;97105.69;4946983;29;19977;-73
2022/03/16 12:31:11;;;;;;;;;;;;;;;12.17;75.19;97073.94;4947799;29;19956;-73
2022/03/16 12:33:39;;;;;;;;;;;;;;;12.16;74.54;97067.09;4939112;29;19956;-72
2022/03/16 12:36:11;;;;;;;;;;;;;;;12.18;74.92;97067.69;4943935;29;19969;-73
2022/03/16 12:38:39;;;;;;;;;;;;;;;12.21;74.71;97066.44;4944776;29;19954;-73
2022/03/16 12:43:56;;;;;;;;;;;;;;;12.24;73.56;97058.94;4947076;29;19954;-72
2022/03/16 12:46:41;;;;;;;;;;;;;;;12.06;74.61;97059.66;4941634;29;19961;-72
2022/03/16 12:49:13;;;;;;;;;;;;;;;11.94;75.26;97056.09;4943474;29;19953;-72
2022/03/16 12:51:43;;;;;;;;;;;;;;;11.90;74.58;97054.91;4940898;29;20005;-72
2022/03/16 12:54:09;;;;;;;;;;;;;;;11.83;73.77;97052.28;4947137;29;19959;-72
2022/03/16 12:56:39;;;;;;;;;;;;;;;11.78;74.48;97060.78;4948580;29;19975;-72
2022/03/16 12:59:05;;;;;;;;;;;;;;;11.73;73.60;97054.56;4942163;29;20306;-72
2022/03/16 13:01:31;;;;;;;;;;;;;;;11.80;76.02;97068.47;4943499;29;19964;-73
2022/03/16 13:04:00;;;;;;;;;;;;;;;11.94;76.12;97070.03;4948462;29;19947;-72
2022/03/16 13:06:26;;;;;;;;;;;;;;;12.09;75.48;97053.97;4950369;29;19962;-71
2022/03/16 13:08:52;;;;;;;;;;;;;;;12.14;74.08;97046.25;4924250;29;19958;-72
2022/03/16 13:11:24;;;;;;;;;;;;;;;12.10;73.55;97039.81;4946098;29;19957;-72
2022/03/16 13:14:05;;;;;;;;;;;;;;;12.15;74.01;97039.16;4945221;29;19958;-72